Ossian — WDF2623 — position and weather

sailwx.info

Track history (hours):
 
Tides and Currents Weather Stations Pressure Air Temp Water Temp Dewpoint Dewpoint Depression Visibility Wind Speed Wind Dir Waves Ship Positions

Ossian

More information available from US FCC via Universal Licensing System and Coast Guard Vessel Documentation Center.

Last reported at 2013-Oct-20 11:13 UTC. Time now 2014-Jul-24 12:20 UTC.
Position N 43°53' W 124°43'.
Warning: this ship's position is months out of date.

Length 26 m.

Type: Fishing. MMSI: 366773410.

Date/timePositionNaut miles runAvg speedWind from/ knotsBaromVisibWave heightAir tempDewpointWater temp
2013-Oct-20 11:13N 43°53' W 124°43'1 0.7
2013-Oct-20 09:06N 43°54' W 124°43'3 1.0
2013-Oct-20 06:21N 43°57' W 124°42'6 4.5
2013-Oct-20 05:04N 43°51' W 124°40'9 5.4
2013-Oct-20 03:20N 43°42' W 124°42'2 1.0
2013-Oct-20 01:31N 43°40' W 124°41'15 2.0
2013-Oct-19 18:04N 43°41' W 124°20'19 1.4
2013-Oct-19 04:27N 43°51' W 124°41'1 0.8
2013-Oct-19 03:07N 43°50' W 124°41'3 4.6
2013-Oct-19 02:34N 43°52' W 124°39'1 0.9
2013-Oct-19 01:33N 43°52' W 124°40'2 2.4
2013-Oct-19 00:33N 43°54' W 124°42'1 0.7
2013-Oct-18 23:33N 43°55' W 124°42'1 0.7
2013-Oct-18 22:33N 43°55' W 124°42'  
Track history (hours):
 
Tides and Currents Weather Stations Pressure Air Temp Water Temp Dewpoint Dewpoint Depression Visibility Wind Speed Wind Dir Waves Ship Positions

Ossian

More information available from US FCC via Universal Licensing System and Coast Guard Vessel Documentation Center.

Last reported at 2013-Oct-20 11:13 UTC. Time now 2014-Jul-24 12:20 UTC.
Position N 43°53' W 124°43'.
Warning: this ship's position is months out of date.

Length 26 m.

Type: Fishing. MMSI: 366773410.

Date/timePositionNaut miles runAvg speedWind from/ knotsBaromVisibWave heightAir tempDewpointWater temp
2013-Oct-20 11:13N 43°53' W 124°43'1 0.7
2013-Oct-20 09:06N 43°54' W 124°43'3 1.0
2013-Oct-20 06:21N 43°57' W 124°42'6 4.5
2013-Oct-20 05:04N 43°51' W 124°40'9 5.4
2013-Oct-20 03:20N 43°42' W 124°42'2 1.0
2013-Oct-20 01:31N 43°40' W 124°41'15 2.0
2013-Oct-19 18:04N 43°41' W 124°20'19 1.4
2013-Oct-19 04:27N 43°51' W 124°41'1 0.8
2013-Oct-19 03:07N 43°50' W 124°41'3 4.6
2013-Oct-19 02:34N 43°52' W 124°39'1 0.9
2013-Oct-19 01:33N 43°52' W 124°40'2 2.4
2013-Oct-19 00:33N 43°54' W 124°42'1 0.7
2013-Oct-18 23:33N 43°55' W 124°42'1 0.7
2013-Oct-18 22:33N 43°55' W 124°42'  

Dump ship's entire track history